Time;durP1;ratioP1;P1;durP2;ratioP2;P2;SDS_P1;SDS_P2;PMS_P1;PMS_P2;Temp;Humidity;BMP_temperature;BMP_pressure;BME280_temperature;BME280_humidity;BME280_pressure;Samples;Min_cycle;Max_cycle;Signal;HPM_P1;HPM_P2
2021/01/21 00:01:02;;;;;;;64.15;32.50;;;;;;;-4.82;66.20;99613.69;1759395;81;21134;-41
2021/01/21 00:03:33;;;;;;;62.50;33.78;;;;;;;-4.85;66.29;99614.20;1765797;81;21150;-41
2021/01/21 00:06:02;;;;;;;63.38;32.67;;;;;;;-4.79;66.33;99612.92;1758403;81;21175;-41
2021/01/21 00:08:31;;;;;;;54.23;30.08;;;;;;;-4.79;66.33;99612.92;1738345;81;22154;-40
2021/01/21 00:10:59;;;;;;;55.17;29.48;;;;;;;-4.83;66.40;99617.37;1744330;81;21043;-41
2021/01/21 00:13:27;;;;;;;64.80;31.15;;;;;;;-4.83;66.48;99609.44;1750118;81;21159;-40
2021/01/21 00:15:55;;;;;;;61.50;32.10;;;;;;;-4.83;66.48;99609.44;1750877;81;21185;-41
2021/01/21 00:18:24;;;;;;;61.48;32.20;;;;;;;-4.82;66.59;99616.84;1773315;80;21201;-41
2021/01/21 00:20:53;;;;;;;65.95;33.05;;;;;;;-4.69;66.48;99607.67;1741025;81;22013;-40
2021/01/21 00:23:21;;;;;;;59.53;30.65;;;;;;;-4.72;66.60;99601.58;1753944;81;21195;-40
2021/01/21 00:25:52;;;;;;;50.83;27.82;;;;;;;-4.72;66.60;99601.58;1744641;80;21181;-41
2021/01/21 00:28:20;;;;;;;56.45;30.95;;;;;;;-4.67;66.58;99593.69;1733579;82;21470;-42
2021/01/21 00:30:49;;;;;;;58.55;32.03;;;;;;;-4.54;66.27;99594.04;1741086;81;21193;-41
2021/01/21 00:33:17;;;;;;;59.88;30.57;;;;;;;-4.54;66.27;99594.04;1761123;81;21337;-41
2021/01/21 00:35:47;;;;;;;58.65;30.75;;;;;;;-4.50;66.33;99594.31;1754835;81;21063;-42
2021/01/21 00:38:15;;;;;;;54.30;30.05;;;;;;;-4.46;66.27;99596.23;1754244;81;21150;-41
2021/01/21 00:40:43;;;;;;;58.13;30.20;;;;;;;-4.47;66.30;99588.53;1748254;81;21636;-41
2021/01/21 00:43:11;;;;;;;52.48;28.35;;;;;;;-4.53;66.84;99589.55;1745455;81;21209;-42
2021/01/21 00:45:41;;;;;;;57.55;31.23;;;;;;;-4.53;66.84;99589.55;1761941;81;21408;-41
2021/01/21 00:48:10;;;;;;;59.55;31.48;;;;;;;-4.55;66.83;99583.17;1761041;81;21169;-42
2021/01/21 00:50:39;;;;;;;55.65;30.72;;;;;;;-4.95;67.12;99518.14;1761113;81;21383;-42
2021/01/21 00:53:09;;;;;;;60.58;31.17;;;;;;;-4.95;67.12;99518.14;1759618;81;21090;-41
2021/01/21 00:55:38;;;;;;;57.55;30.75;;;;;;;-4.49;67.04;99584.02;1761112;81;21189;-42
2021/01/21 00:58:06;;;;;;;55.35;30.40;;;;;;;-4.46;67.11;99592.25;1760738;81;22142;-42
2021/01/21 01:00:35;;;;;;;55.65;30.45;;;;;;;-4.43;67.10;99589.61;1761896;81;21166;-41
2021/01/21 01:03:08;;;;;;;45.60;23.97;;;;;;;-4.50;67.17;99569.98;1758552;81;21187;-41
2021/01/21 01:05:39;;;;;;;56.48;30.32;;;;;;;-4.49;67.27;99577.39;1758776;81;21177;-42
2021/01/21 01:08:08;;;;;;;61.60;31.10;;;;;;;-4.50;67.54;99579.77;1751302;81;21134;-41
2021/01/21 01:10:36;;;;;;;53.92;30.30;;;;;;;-4.48;67.64;99568.41;1739956;81;21355;-42
2021/01/21 01:13:06;;;;;;;53.23;29.37;;;;;;;-4.48;67.67;99575.03;1736836;81;21221;-41
2021/01/21 01:15:37;;;;;;;58.68;32.40;;;;;;;-4.52;67.78;99574.75;1768071;80;21008;-41
2021/01/21 01:18:06;;;;;;;53.40;29.25;;;;;;;-4.44;67.75;99576.91;1735434;81;21640;-42
2021/01/21 01:20:36;;;;;;;53.50;30.20;;;;;;;-4.44;67.75;99576.91;1749076;81;21202;-42
2021/01/21 01:23:04;;;;;;;53.42;29.60;;;;;;;-4.40;67.86;99578.50;1757540;79;21162;-41
2021/01/21 01:25:35;;;;;;;59.65;30.05;;;;;;;-4.40;67.98;99586.44;1735639;80;21185;-42
2021/01/21 01:28:04;;;;;;;;;;;;;;;-4.53;68.25;99566.53;1739260;81;21629;-42
2021/01/21 01:30:32;;;;;;;50.38;28.40;;;;;;;-4.44;68.29;99572.13;1746974;82;20582;-42
2021/01/21 01:33:01;;;;;;;48.50;24.57;;;;;;;-4.50;68.56;99561.25;1770575;80;21143;-42
2021/01/21 01:35:30;;;;;;;57.83;28.80;;;;;;;-4.45;68.69;99548.05;1769501;80;22271;-41
2021/01/21 01:37:59;;;;;;;52.93;30.17;;;;;;;-4.44;68.63;99543.03;1759444;80;21364;-41
2021/01/21 01:40:27;;;;;;;51.70;28.62;;;;;;;-4.36;68.72;99549.18;1751302;80;21179;-42
2021/01/21 01:42:56;;;;;;;49.30;27.75;;;;;;;-4.36;68.72;99549.18;1758845;81;21133;-42
2021/01/21 01:45:25;;;;;;;54.42;30.72;;;;;;;-4.29;68.58;99556.34;1765493;81;21627;-41
2021/01/21 01:47:53;;;;;;;56.65;30.80;;;;;;;-4.30;68.56;99546.80;1757797;81;21675;-41
2021/01/21 01:50:29;;;;;;;55.70;29.72;;;;;;;-4.25;68.50;99543.37;1751805;81;21221;-42
2021/01/21 01:52:58;;;;;;;52.30;29.90;;;;;;;-4.63;68.49;99475.73;1748632;81;21173;-42
2021/01/21 01:55:26;;;;;;;54.08;29.42;;;;;;;-4.17;68.40;99542.39;1746579;81;22692;-42
2021/01/21 01:57:56;;;;;;;;;;;;;;;-4.17;68.41;99537.09;1762640;81;21182;-42
2021/01/21 02:00:26;;;;;;;40.52;22.10;;;;;;;-4.11;68.51;99534.70;1743340;81;21152;-41
2021/01/21 02:02:59;;;;;;;54.77;29.82;;;;;;;-4.10;68.52;99527.05;1740077;81;21618;-42
2021/01/21 02:05:29;;;;;;;51.70;27.50;;;;;;;-4.01;68.40;99526.81;1754919;81;21181;-42
2021/01/21 02:07:58;;;;;;;50.35;27.95;;;;;;;-3.99;68.14;99519.41;1750442;81;21035;-42
2021/01/21 02:10:27;;;;;;;50.05;27.82;;;;;;;-3.99;68.14;99519.41;1740854;81;21224;-42
2021/01/21 02:13:30;;;;;;;51.33;28.23;;;;;;;-4.00;68.35;99520.46;1738444;81;21220;-41
2021/01/21 02:16:27;;;;;;;49.95;27.52;;;;;;;-3.93;68.30;99507.52;1737381;81;21023;-42
2021/01/21 02:19:48;;;;;;;50.20;26.30;;;;;;;-3.94;68.53;99513.33;1764373;81;21154;-42
2021/01/21 02:22:49;;;;;;;54.48;28.10;;;;;;;-3.90;68.76;99508.30;1767426;81;21177;-42
2021/01/21 02:25:32;;;;;;;49.05;27.90;;;;;;;-3.91;68.73;99501.41;1741425;81;21393;-41
2021/01/21 02:28:13;;;;;;;52.55;27.87;;;;;;;-3.82;68.60;99513.08;1759033;81;21267;-41
2021/01/21 02:31:04;;;;;;;52.58;28.60;;;;;;;-3.75;68.44;99514.97;1747686;81;21137;-41
2021/01/21 02:33:54;;;;;;;50.60;28.65;;;;;;;-3.71;68.27;99516.03;1751650;81;20996;-42
2021/01/21 02:36:40;;;;;;;53.90;27.75;;;;;;;-3.74;68.32;99504.64;1767503;81;21206;-42
2021/01/21 02:39:12;;;;;;;53.33;28.62;;;;;;;-3.69;68.23;99500.16;1764199;81;21400;-42
2021/01/21 02:41:42;;;;;;;52.33;28.30;;;;;;;-3.67;68.21;99499.87;1765084;81;21213;-42
2021/01/21 02:44:10;;;;;;;54.42;28.42;;;;;;;-3.70;68.31;99496.44;1767733;81;21577;-42
2021/01/21 02:46:38;;;;;;;49.50;28.32;;;;;;;-3.69;68.37;99494.86;1765954;81;21178;-42
2021/01/21 02:49:07;;;;;;;50.10;27.45;;;;;;;-3.65;68.46;99498.56;1762930;81;21510;-42
2021/01/21 02:51:42;;;;;;;46.18;26.02;;;;;;;-3.65;68.46;99498.56;1738388;81;21193;-42
2021/01/21 02:54:29;;;;;;;52.55;29.00;;;;;;;-3.62;68.42;99499.35;1761131;81;21215;-42
2021/01/21 02:57:07;;;;;;;47.85;25.15;;;;;;;-3.60;68.41;99511.82;1753679;81;21161;-41
2021/01/21 02:59:40;;;;;;;46.70;26.35;;;;;;;-3.52;68.33;99521.09;1761814;81;21675;-42
2021/01/21 03:02:10;;;;;;;50.78;26.52;;;;;;;-3.53;68.32;99520.30;1751354;81;21054;-42
2021/01/21 03:04:38;;;;;;;53.25;28.10;;;;;;;-3.52;68.36;99523.74;1742816;81;21103;-42
2021/01/21 03:07:09;;;;;;;52.20;27.62;;;;;;;-3.53;68.55;99520.30;1765473;81;21211;-42
2021/01/21 03:09:44;;;;;;;52.23;27.32;;;;;;;-3.54;68.60;99520.58;1729041;80;21193;-42
2021/01/21 03:12:22;;;;;;;53.35;28.20;;;;;;;-3.54;68.66;99528.00;1750207;81;21591;-42
2021/01/21 03:14:54;;;;;;;53.75;28.23;;;;;;;-3.56;68.82;99523.48;1727512;81;21142;-42
2021/01/21 03:17:25;;;;;;;48.55;27.30;;;;;;;-3.51;68.82;99525.34;1702447;81;21636;-42
2021/01/21 03:19:55;;;;;;;50.63;27.55;;;;;;;-3.52;68.86;99525.07;1739399;81;21384;-42
2021/01/21 03:22:23;;;;;;;48.70;27.13;;;;;;;-3.56;69.26;99534.61;1778766;80;21209;-42
2021/01/21 03:24:52;;;;;;;51.08;25.80;;;;;;;-3.60;69.23;99525.59;1776548;80;21118;-41
2021/01/21 03:27:22;;;;;;;;;;;;;;;-3.57;69.19;99527.19;1768775;80;21173;-41
2021/01/21 03:29:53;;;;;;;51.00;26.48;;;;;;;-3.56;69.26;99520.03;1785116;80;20269;-41
2021/01/21 03:32:22;;;;;;;49.20;26.70;;;;;;;-4.01;69.36;99457.16;1774357;80;22125;-42
2021/01/21 03:34:52;;;;;;;52.55;28.32;;;;;;;-3.47;69.23;99517.12;1751748;80;21093;-41
2021/01/21 03:37:21;;;;;;;47.48;25.57;;;;;;;-3.46;69.31;99539.13;1756532;80;21091;-42
2021/01/21 03:39:49;;;;;;;47.53;25.40;;;;;;;-3.39;69.36;99525.90;1752575;80;21193;-42
2021/01/21 03:42:36;;;;;;;52.23;27.62;;;;;;;-3.39;69.36;99525.90;1751666;81;21138;-42
2021/01/21 03:45:08;;;;;;;48.42;25.65;;;;;;;-3.38;69.16;99521.37;1743832;81;22690;-42
2021/01/21 03:47:36;;;;;;;47.62;24.87;;;;;;;-3.37;69.06;99510.52;1751071;80;21164;-42
2021/01/21 03:50:08;;;;;;;49.30;26.62;;;;;;;-3.37;69.15;99513.69;1752649;81;21590;-42
2021/01/21 03:52:37;;;;;;;48.33;26.07;;;;;;;-3.36;69.11;99516.08;1716588;81;21146;-42
2021/01/21 03:55:11;;;;;;;51.40;28.83;;;;;;;-3.36;69.20;99510.78;1729640;81;21193;-42
2021/01/21 03:57:40;;;;;;;49.95;26.97;;;;;;;-3.38;69.27;99512.89;1736548;80;21281;-42
2021/01/21 04:00:27;;;;;;;53.92;27.65;;;;;;;-3.34;69.26;99509.97;1760473;81;21141;-42
2021/01/21 04:02:57;;;;;;;46.73;25.20;;;;;;;-3.32;69.32;99505.73;1749193;80;21256;-42
2021/01/21 04:05:43;;;;;;;52.78;26.93;;;;;;;-3.30;69.39;99507.08;1736287;81;21179;-42
2021/01/21 04:08:11;;;;;;;50.00;25.95;;;;;;;-3.26;69.45;99507.34;1755348;81;21162;-42
2021/01/21 04:10:41;;;;;;;50.25;28.12;;;;;;;-3.26;69.45;99507.34;1755553;81;21226;-41
2021/01/21 04:13:11;;;;;;;50.60;27.52;;;;;;;-3.26;69.57;99510.79;1753870;81;27021;-42
2021/01/21 04:15:39;;;;;;;48.52;26.27;;;;;;;-3.25;69.70;99507.09;1755171;81;21486;-42
2021/01/21 04:18:08;;;;;;;51.48;27.65;;;;;;;-3.28;69.84;99511.57;1735825;81;21215;-42
2021/01/21 04:20:41;;;;;;;55.43;27.73;;;;;;;-3.26;69.88;99508.14;1743892;81;21185;-42
2021/01/21 04:23:09;;;;;;;51.58;26.82;;;;;;;-3.22;69.77;99501.23;1759845;81;21357;-42
2021/01/21 04:25:38;;;;;;;41.88;20.80;;;;;;;-3.19;69.80;99509.98;1755391;81;21371;-42
2021/01/21 04:28:07;;;;;;;53.40;27.55;;;;;;;-3.17;69.85;99504.42;1745802;81;21185;-42
2021/01/21 04:30:37;;;;;;;53.13;27.98;;;;;;;-3.15;69.69;99500.42;1759431;81;21146;-42
2021/01/21 04:33:06;;;;;;;46.77;25.50;;;;;;;-3.10;69.89;99504.96;1747187;81;21127;-42
2021/01/21 04:35:34;;;;;;;49.18;24.18;;;;;;;-3.12;69.86;99496.46;1750521;81;21374;-42
2021/01/21 04:38:03;;;;;;;51.23;26.30;;;;;;;-3.11;69.93;99508.14;1732811;81;21653;-42
2021/01/21 04:40:33;;;;;;;;;;;;;;;-3.09;69.83;99507.33;1736509;81;21198;-42
2021/01/21 04:43:19;;;;;;;49.03;25.35;;;;;;;-3.15;70.05;99511.03;1758949;81;20296;-42
2021/01/21 04:45:49;;;;;;;41.53;20.87;;;;;;;-3.23;70.33;99511.57;1725308;81;21169;-42
2021/01/21 04:48:16;;;;;;;49.98;26.50;;;;;;;-3.20;70.24;99507.61;1744784;80;21186;-42
2021/01/21 04:50:59;;;;;;;49.38;26.60;;;;;;;-3.16;70.37;99501.51;1806661;77;22934;-43
2021/01/21 04:53:28;;;;;;;48.95;27.17;;;;;;;-3.17;70.27;99505.22;1787316;77;21285;-42
2021/01/21 04:56:01;;;;;;;;;;;;;;;-3.20;70.54;99499.66;1758764;78;21278;-42
2021/01/21 04:58:57;;;;;;;47.25;24.92;;;;;;;-3.18;70.45;99496.98;1784475;79;20188;-42
2021/01/21 05:01:45;;;;;;;45.15;23.62;;;;;;;-3.27;70.82;99504.41;1803372;77;21008;-42
2021/01/21 05:04:15;;;;;;;49.05;25.70;;;;;;;-3.29;70.92;99506.55;1779689;80;21000;-42
2021/01/21 05:07:02;;;;;;;44.55;23.45;;;;;;;-3.30;71.04;99507.08;1760412;79;21173;-42
2021/01/21 05:09:31;;;;;;;48.13;26.02;;;;;;;-3.26;71.01;99504.16;1713389;82;21209;-42
2021/01/21 05:11:59;;;;;;;46.48;25.65;;;;;;;-3.20;70.87;99509.73;1680743;81;21644;-42
2021/01/21 05:14:29;;;;;;;47.90;25.85;;;;;;;-3.13;70.70;99503.62;1745543;81;20985;-42
2021/01/21 05:17:06;;;;;;;49.67;25.62;;;;;;;-3.09;70.67;99508.65;1716097;82;21135;-42
2021/01/21 05:19:52;;;;;;;49.05;26.45;;;;;;;-3.15;70.66;99500.98;1760239;80;21186;-42
2021/01/21 05:22:40;;;;;;;47.25;24.80;;;;;;;-3.12;70.78;99507.87;1723273;81;21276;-42
2021/01/21 05:25:29;;;;;;;47.48;26.20;;;;;;;-3.09;70.53;99513.16;1739262;81;21142;-42
2021/01/21 05:28:15;;;;;;;53.40;27.95;;;;;;;-3.09;70.53;99513.16;1734362;81;21189;-42
2021/01/21 05:30:53;;;;;;;48.20;26.50;;;;;;;-3.03;70.56;99509.98;1738747;80;21197;-42
2021/01/21 05:33:23;;;;;;;47.88;26.77;;;;;;;-3.03;70.55;99517.93;1748338;81;21181;-42
2021/01/21 05:36:06;;;;;;;47.93;25.80;;;;;;;-3.03;70.55;99513.95;1696860;82;21436;-42
2021/01/21 05:38:38;;;;;;;48.33;26.73;;;;;;;-3.05;70.32;99506.28;1744426;80;21146;-42
2021/01/21 05:41:26;;;;;;;51.10;26.82;;;;;;;-3.00;70.51;99513.44;1827764;78;22697;-41
2021/01/21 05:44:01;;;;;;;50.80;27.13;;;;;;;-3.03;70.49;99515.28;1780691;79;21032;-41
2021/01/21 05:46:35;;;;;;;49.70;25.68;;;;;;;-3.03;70.43;99516.60;1764759;79;21371;-41
2021/01/21 05:49:04;;;;;;;53.68;27.93;;;;;;;-3.11;70.73;99524.05;1802414;79;21636;-41
2021/01/21 05:51:34;;;;;;;;;;;;;;;-3.11;70.68;99522.72;1784153;79;21011;-41
2021/01/21 05:54:05;;;;;;;37.08;19.70;;;;;;;-3.11;70.85;99528.03;1806200;79;20220;-41
2021/01/21 05:56:35;;;;;;;50.95;26.05;;;;;;;-3.15;70.95;99529.59;1790649;79;20996;-41
2021/01/21 05:59:15;;;;;;;48.15;26.93;;;;;;;-3.09;70.86;99527.22;1775691;80;21746;-41
2021/01/21 06:01:44;;;;;;;49.10;25.60;;;;;;;-3.10;70.98;99525.61;1791282;79;21043;-41
2021/01/21 06:04:15;;;;;;;51.85;27.35;;;;;;;-3.08;71.03;99523.50;1807595;79;21047;-41
2021/01/21 06:06:46;;;;;;;47.58;25.97;;;;;;;-3.05;71.01;99524.05;1791324;79;21067;-42
2021/01/21 06:09:17;;;;;;;47.53;26.50;;;;;;;-3.03;70.96;99525.89;1736360;81;21165;-42
2021/01/21 06:11:45;;;;;;;49.18;26.40;;;;;;;-2.97;70.87;99534.91;1743017;82;21392;-42
2021/01/21 06:14:13;;;;;;;50.85;26.93;;;;;;;-2.97;70.96;99532.78;1734737;82;21033;-42
2021/01/21 06:16:41;;;;;;;50.23;27.20;;;;;;;-2.94;70.91;99521.63;1723894;82;21044;-42
2021/01/21 06:19:09;;;;;;;52.08;26.45;;;;;;;-2.89;70.80;99526.41;1756325;81;21165;-42
2021/01/21 06:21:59;;;;;;;46.05;25.72;;;;;;;-2.85;70.71;99530.11;1712198;82;21127;-42
2021/01/21 06:24:44;;;;;;;49.42;27.40;;;;;;;-2.84;70.67;99529.58;1721736;82;21216;-43
2021/01/21 06:27:14;;;;;;;49.95;25.43;;;;;;;-3.16;70.71;99486.12;1742195;81;21134;-42
2021/01/21 06:32:38;;;;;;;50.83;27.93;;;;;;;-2.72;70.68;99531.44;1823176;78;22713;-42
2021/01/21 06:35:08;;;;;;;53.08;27.50;;;;;;;-2.79;70.83;99527.72;1788044;79;21241;-42
2021/01/21 06:37:38;;;;;;;50.20;27.32;;;;;;;-2.77;70.78;99521.63;1790310;79;22120;-42
2021/01/21 06:40:10;;;;;;;50.10;26.68;;;;;;;-2.75;70.83;99521.34;1813361;79;21026;-41
2021/01/21 06:42:42;;;;;;;49.55;26.37;;;;;;;-2.70;70.78;99526.64;1813231;79;22122;-42
2021/01/21 06:45:11;;;;;;;46.53;26.48;;;;;;;-2.65;70.68;99523.98;1787505;77;21020;-42
2021/01/21 06:47:39;;;;;;;50.70;27.77;;;;;;;-2.65;70.73;99520.00;1814477;79;21004;-41
2021/01/21 06:50:09;;;;;;;51.73;27.45;;;;;;;-2.57;70.61;99522.13;1813157;78;21371;-42
2021/01/21 06:52:38;;;;;;;51.75;27.42;;;;;;;-2.51;70.49;99538.28;1757024;80;21056;-41
2021/01/21 06:55:11;;;;;;;51.50;26.85;;;;;;;-2.51;70.54;99532.17;1757754;80;21044;-41
2021/01/21 06:57:42;;;;;;;48.10;26.27;;;;;;;-2.48;70.49;99531.13;1774478;80;21138;-42
2021/01/21 07:00:15;;;;;;;52.55;25.97;;;;;;;-2.48;70.59;99519.17;1777835;80;21201;-42
2021/01/21 07:02:53;;;;;;;52.53;28.27;;;;;;;-2.71;70.50;99486.60;1755775;81;21380;-42
2021/01/21 07:05:23;;;;;;;51.40;26.62;;;;;;;-2.42;70.56;99529.25;1755669;81;21174;-41
2021/01/21 07:07:58;;;;;;;52.23;28.27;;;;;;;-2.37;70.43;99529.23;1755818;81;21134;-41
2021/01/21 07:10:36;;;;;;;51.53;26.75;;;;;;;-2.34;70.34;99526.83;1755753;81;21174;-41
2021/01/21 07:13:10;;;;;;;53.28;26.70;;;;;;;-2.30;70.27;99530.53;1755915;81;21613;-42
2021/01/21 07:15:51;;;;;;;51.98;28.87;;;;;;;-2.26;70.20;99527.59;1753318;80;21326;-41
2021/01/21 07:18:24;;;;;;;57.03;27.87;;;;;;;-2.27;70.27;99529.17;1755429;80;21190;-42
2021/01/21 07:21:18;;;;;;;54.90;30.17;;;;;;;-2.26;70.31;99527.59;1761051;80;21166;-42
2021/01/21 07:23:52;;;;;;;54.83;28.07;;;;;;;-2.29;70.51;99530.80;1767492;80;21075;-41
2021/01/21 07:26:37;;;;;;;57.70;29.82;;;;;;;-2.29;70.58;99530.80;1755702;81;21168;-41
2021/01/21 07:29:20;;;;;;;55.60;27.50;;;;;;;-2.21;70.42;99528.10;1755819;80;21776;-41
2021/01/21 07:32:04;;;;;;;52.20;28.00;;;;;;;-2.15;70.29;99524.90;1760077;80;21716;-41
2021/01/21 07:34:44;;;;;;;51.88;28.23;;;;;;;-2.11;70.09;99524.61;1766653;81;21609;-41
2021/01/21 07:37:46;;;;;;;59.08;30.40;;;;;;;-2.09;69.97;99525.15;1742534;82;21615;-42
2021/01/21 07:40:14;;;;;;;58.48;29.40;;;;;;;-2.04;69.86;99514.50;1782830;79;21041;-42
2021/01/21 07:42:48;;;;;;;52.25;29.85;;;;;;;-1.99;69.75;99521.13;1779474;79;21203;-41
2021/01/21 07:45:21;;;;;;;57.05;29.67;;;;;;;-1.96;69.73;99517.91;1732139;82;21163;-41
2021/01/21 07:47:50;;;;;;;53.75;27.80;;;;;;;-1.88;69.58;99511.48;1781628;79;21214;-41
2021/01/21 07:50:25;;;;;;;48.73;25.15;;;;;;;-1.78;69.60;99519.94;1774140;80;21175;-40
2021/01/21 07:52:55;;;;;;;54.48;30.25;;;;;;;-1.62;69.37;99517.98;1773926;80;21091;-41
2021/01/21 07:55:35;;;;;;;57.67;30.77;;;;;;;-1.46;69.09;99515.50;1773910;80;21374;-41
2021/01/21 08:00:37;;;;;;;58.52;29.18;;;;;;;-1.09;67.93;99502.97;1760528;79;22640;-42
2021/01/21 08:03:06;;;;;;;51.88;29.07;;;;;;;-1.07;67.70;99503.50;1722507;82;21027;-41
2021/01/21 08:05:37;;;;;;;59.20;31.35;;;;;;;-0.97;67.48;99500.75;1741738;82;21213;-41
2021/01/21 08:08:06;;;;;;;53.02;29.37;;;;;;;-0.91;67.13;99511.05;1735427;81;20993;-41
2021/01/21 08:10:37;;;;;;;53.40;29.45;;;;;;;-0.86;66.91;99502.22;1732688;80;21059;-41
2021/01/21 08:13:08;;;;;;;48.87;27.42;;;;;;;-0.83;66.69;99502.22;1712128;83;21158;-41
2021/01/21 08:15:36;;;;;;;56.25;31.55;;;;;;;-0.84;66.60;99510.73;1689839;84;21064;-41
2021/01/21 08:18:05;;;;;;;58.40;31.20;;;;;;;-0.82;66.68;99504.58;1682001;84;21151;-41
2021/01/21 08:20:36;;;;;;;57.50;31.52;;;;;;;-0.78;66.68;99505.63;1684764;84;21036;-41
2021/01/21 08:23:10;;;;;;;40.40;23.35;;;;;;;-0.78;66.83;99502.16;1691529;84;21071;-41
2021/01/21 08:25:45;;;;;;;51.92;28.32;;;;;;;-0.67;66.89;99497.77;1683965;84;21205;-41
2021/01/21 08:28:18;;;;;;;63.52;32.45;;;;;;;-0.46;66.64;99519.13;1681222;84;21206;-41
2021/01/21 08:30:49;;;;;;;54.00;29.95;;;;;;;-0.23;66.22;99504.21;1667998;84;23709;-41
2021/01/21 08:33:27;;;;;;;56.68;30.35;;;;;;;-0.04;65.65;99508.24;1695260;84;21137;-42
2021/01/21 08:36:04;;;;;;;56.35;30.52;;;;;;;0.10;65.34;99494.46;1690222;84;21226;-42
2021/01/21 08:38:42;;;;;;;51.85;30.50;;;;;;;0.24;64.99;99503.33;1687955;84;21205;-41
2021/01/21 08:41:13;;;;;;;58.60;30.52;;;;;;;0.38;64.44;99506.89;1706698;84;21759;-41
2021/01/21 08:43:43;;;;;;;56.65;31.12;;;;;;;0.39;63.89;99502.33;1711231;82;21600;-42
2021/01/21 08:46:22;;;;;;;52.35;29.92;;;;;;;0.41;64.08;99498.30;1684035;84;21201;-42
2021/01/21 08:48:51;;;;;;;56.15;30.30;;;;;;;0.52;63.72;99492.28;1705154;84;21056;-41
2021/01/21 08:51:34;;;;;;;56.85;30.45;;;;;;;0.61;63.37;99494.55;1707439;84;21234;-41
2021/01/21 08:54:20;;;;;;;53.83;29.85;;;;;;;0.68;63.02;99502.16;1692184;84;21186;-41
2021/01/21 08:57:09;;;;;;;53.45;29.92;;;;;;;0.68;63.01;99501.62;1679459;84;21708;-42
2021/01/21 08:59:39;;;;;;;;;;;;;;;0.76;62.82;99505.52;1688917;83;21181;-41
2021/01/21 09:02:09;;;;;;;54.35;30.43;;;;;;;0.86;62.46;99513.37;1687458;84;20218;-41
2021/01/21 09:04:39;;;;;;;49.63;28.00;;;;;;;0.74;62.54;99511.14;1717143;83;21646;-42
2021/01/21 09:07:09;;;;;;;53.13;30.02;;;;;;;0.77;62.71;99501.77;1697173;83;21172;-42
2021/01/21 09:09:45;;;;;;;53.35;30.88;;;;;;;0.81;62.64;99506.23;1654313;86;21216;-42
2021/01/21 09:12:23;;;;;;;54.10;30.62;;;;;;;0.88;62.39;99495.17;1689148;84;21169;-42
2021/01/21 09:15:07;;;;;;;51.70;28.77;;;;;;;0.94;62.28;99490.00;1703185;83;21039;-42
2021/01/21 09:17:35;;;;;;;52.33;30.90;;;;;;;1.10;62.17;99485.20;1708914;83;20980;-42
2021/01/21 09:20:24;;;;;;;55.70;31.35;;;;;;;1.25;61.40;99489.74;1700223;83;21598;-42
2021/01/21 09:22:54;;;;;;;54.70;31.15;;;;;;;1.25;61.25;99484.40;1664377;84;22350;-42
2021/01/21 09:25:26;;;;;;;56.95;31.12;;;;;;;1.25;61.49;99487.06;1700452;83;21217;-42
2021/01/21 09:27:56;;;;;;;53.42;31.30;;;;;;;1.39;61.39;99482.28;1676003;84;21182;-42
2021/01/21 09:30:26;;;;;;;54.63;30.17;;;;;;;1.47;60.96;99488.27;1676228;83;21098;-42
2021/01/21 09:32:56;;;;;;;58.45;32.35;;;;;;;1.56;60.77;99487.27;1679937;83;21623;-42
2021/01/21 09:35:26;;;;;;;52.83;30.10;;;;;;;1.66;60.84;99484.95;1663236;84;22289;-42
2021/01/21 09:37:57;;;;;;;55.83;31.45;;;;;;;1.85;60.29;99482.95;1663113;86;21188;-42
2021/01/21 09:40:31;;;;;;;53.55;30.85;;;;;;;1.99;59.63;99482.39;1690926;84;21971;-42
2021/01/21 09:43:03;;;;;;;52.48;30.43;;;;;;;2.07;59.64;99480.37;1713130;83;21631;-42
2021/01/21 09:45:32;;;;;;;57.85;31.70;;;;;;;2.21;59.36;99476.86;1690946;84;21437;-42
2021/01/21 09:48:04;;;;;;;56.85;31.15;;;;;;;2.33;58.63;99481.92;1697164;83;23468;-42
2021/01/21 09:50:33;;;;;;;52.38;30.65;;;;;;;2.41;58.93;99477.75;1716854;83;21043;-42
2021/01/21 09:53:01;;;;;;;50.43;29.85;;;;;;;2.47;58.46;99476.55;1698600;83;20999;-42
2021/01/21 09:55:30;;;;;;;54.00;31.30;;;;;;;2.48;58.41;99476.77;1661405;86;21204;-42
2021/01/21 09:57:59;;;;;;;47.38;26.37;;;;;;;2.48;58.54;99472.22;1690964;84;21660;-42
2021/01/21 10:00:28;;;;;;;38.63;23.00;;;;;;;2.51;58.66;99474.84;1673428;84;21460;-42
2021/01/21 10:02:57;;;;;;;50.63;29.52;;;;;;;2.55;58.78;99477.95;1713347;82;21143;-43
2021/01/21 10:05:25;;;;;;;56.68;31.17;;;;;;;2.57;58.46;99465.04;1708382;82;21605;-42
2021/01/21 10:07:53;;;;;;;51.05;29.37;;;;;;;2.62;58.50;99456.89;1726739;82;22114;-42
2021/01/21 10:10:22;;;;;;;53.68;30.88;;;;;;;2.72;58.39;99466.56;1709448;82;21470;-42
2021/01/21 10:12:51;;;;;;;42.20;23.67;;;;;;;2.86;58.28;99466.48;1720723;82;21214;-42
2021/01/21 10:15:19;;;;;;;52.83;30.15;;;;;;;2.96;58.15;99461.67;1740196;81;21191;-43
2021/01/21 10:17:47;;;;;;;48.23;29.35;;;;;;;3.08;57.94;99449.61;1719107;82;21243;-42
2021/01/21 10:20:17;;;;;;;49.03;29.35;;;;;;;3.19;57.72;99450.94;1713450;82;21605;-42
2021/01/21 10:22:45;;;;;;;50.23;29.90;;;;;;;3.31;57.06;99453.81;1706715;82;21159;-43
2021/01/21 10:25:14;;;;;;;50.55;29.32;;;;;;;3.36;56.89;99438.94;1706899;82;21399;-42
2021/01/21 10:27:42;;;;;;;45.60;27.25;;;;;;;3.38;56.76;99447.48;1721612;82;21175;-42
2021/01/21 10:30:13;;;;;;;47.33;29.25;;;;;;;3.28;56.98;99442.39;1731565;82;21081;-43
2021/01/21 10:32:41;;;;;;;47.48;27.13;;;;;;;3.27;57.03;99443.48;1727284;82;21186;-43
2021/01/21 10:35:12;;;;;;;50.48;29.82;;;;;;;3.24;57.02;99449.47;1726609;82;21151;-42
2021/01/21 10:37:41;;;;;;;49.60;29.27;;;;;;;3.18;57.19;99442.66;1712439;82;21396;-42
2021/01/21 10:40:12;;;;;;;49.30;28.47;;;;;;;3.18;57.27;99445.34;1732207;82;21152;-42
2021/01/21 10:42:40;;;;;;;46.20;27.27;;;;;;;3.22;57.31;99436.37;1717262;82;21036;-42
2021/01/21 10:45:10;;;;;;;51.20;29.80;;;;;;;3.32;57.20;99452.72;1720160;82;21021;-43
2021/01/21 10:47:39;;;;;;;49.85;29.30;;;;;;;3.41;56.92;99444.96;1715125;82;21593;-43
2021/01/21 10:50:10;;;;;;;52.33;31.10;;;;;;;3.54;56.80;99435.77;1757903;81;21606;-42
2021/01/21 10:52:39;;;;;;;47.03;29.27;;;;;;;3.60;56.37;99429.96;1672943;84;21235;-42
2021/01/21 10:55:11;;;;;;;45.60;28.10;;;;;;;3.62;56.22;99421.07;1659208;84;21507;-43
2021/01/21 10:57:39;;;;;;;47.75;29.12;;;;;;;3.66;56.32;99420.68;1711095;82;21633;-42
2021/01/21 11:00:09;;;;;;;46.60;28.67;;;;;;;3.77;56.14;99428.68;1731418;82;21191;-43
2021/01/21 11:02:39;;;;;;;49.10;30.37;;;;;;;3.85;55.73;99424.42;1739873;82;21418;-42
2021/01/21 11:05:10;;;;;;;51.00;30.17;;;;;;;3.89;55.43;99430.19;1748145;82;21154;-43
2021/01/21 11:07:38;;;;;;;45.43;28.92;;;;;;;3.91;55.68;99425.31;1723342;82;21169;-43
2021/01/21 11:10:08;;;;;;;50.00;28.67;;;;;;;3.99;55.65;99426.96;1721624;82;21051;-43
2021/01/21 11:12:39;;;;;;;43.85;26.40;;;;;;;4.08;55.41;99418.37;1724914;82;21185;-43
2021/01/21 11:15:08;;;;;;;48.10;28.70;;;;;;;4.16;55.28;99421.63;1725658;82;21388;-43
2021/01/21 11:17:36;;;;;;;47.50;28.75;;;;;;;4.24;55.11;99424.85;1721270;82;21612;-43
2021/01/21 11:20:07;;;;;;;44.77;27.70;;;;;;;4.34;55.01;99424.54;1735078;82;21177;-43
2021/01/21 11:22:37;;;;;;;47.23;29.32;;;;;;;4.45;54.42;99420.98;1737720;82;21145;-43
2021/01/21 11:25:09;;;;;;;51.40;29.77;;;;;;;4.53;54.24;99418.84;1748475;81;21629;-43
2021/01/21 11:27:42;;;;;;;45.05;28.83;;;;;;;4.52;53.90;99409.99;1739077;82;21283;-43
2021/01/21 11:30:12;;;;;;;48.25;29.48;;;;;;;4.51;53.80;99416.46;1726039;82;21138;-43
2021/01/21 11:32:40;;;;;;;;;;;;;;;4.59;53.97;99409.52;1737827;82;21585;-43
2021/01/21 11:35:09;;;;;;;46.15;27.73;;;;;;;4.74;53.95;99403.07;1723316;82;20206;-43
2021/01/21 11:37:37;;;;;;;45.90;28.42;;;;;;;4.79;53.42;99404.25;1744018;82;21153;-43
2021/01/21 11:40:07;;;;;;;45.33;28.57;;;;;;;4.84;53.14;99389.09;1740366;82;21274;-43
2021/01/21 11:42:35;;;;;;;43.98;26.85;;;;;;;4.87;53.01;99401.32;1725450;82;28278;-43
2021/01/21 11:45:06;;;;;;;41.40;27.60;;;;;;;4.93;53.22;99391.98;1736035;82;22254;-43
2021/01/21 11:47:39;;;;;;;;;;;;;;;4.99;52.88;99393.38;1737444;82;21166;-43
2021/01/21 11:50:09;;;;;;;45.70;28.67;;;;;;;4.97;52.98;99391.58;1720058;82;20273;-43
2021/01/21 11:52:39;;;;;;;48.08;28.47;;;;;;;4.97;52.92;99393.47;1731037;82;21207;-43